1967 Severe Tropical Cyclone ELSIE (1967015S14124)


IBTrACS version v04r00. Visit IBTrACS website for data access.
Please direct all questions to the IBTrACS Q and A forum

Storm track - Intensity - Wind Radii - Intensity Data - Source Data - All data

Summary Information

Storm ID 1967015S14124
Start Jan 14 23Z
Landfall Jan 20 11Z
Max Intensity 80 kt (Jan 20 00Z), 965 mb (Jan 19 23Z)
End Jan 23 01Z
ATCF IDs ,SH151967
Track status Best track data.

Storm track plot

Map of storm track

Intensity plots

Map of storm track

Radial wind information

No radial wind information for this storm


Position and Intensity Table

BASIN ISO_TIME_________ NATURE LAT LON WMO PRES BOM PRES NEUMANN WIND NEUMANN PRES
degrees north degrees east mb mb kts mb
SI 1967-01-14 23:00:00 NR -14.00 124.00
SI 1967-01-15 00:00:00 TS -14.00 123.98
SI 03:00:00 TS -13.95 123.83
SI 06:00:00 TS -13.91 123.70
SI 09:00:00 TS -13.90 123.59
SI 11:00:00 TS -13.90 123.52
SI 12:00:00 TS -13.90 123.49
SI 15:00:00 TS -13.89 123.35
SI 18:00:00 TS -13.89 123.21
SI 21:00:00 TS -13.89 123.10
SI 23:00:00 TS -13.90 123.03
SI 1967-01-16 00:00:00 TS -13.96 122.98 30 999
SI 01:00:00 TS -14.08 122.92 999 999 30 998
SI 03:00:00 TS -14.20 122.72 32 998
SI 06:00:00 TS -14.35 122.40 35 997
SI 09:00:00 TS -14.45 122.09 37 996
SI 11:00:00 TS -14.51 121.91 39 995
SI 12:00:00 TS -14.54 121.83 40 995
SI 15:00:00 TS -14.64 121.58 42 993
SI 18:00:00 TS -14.76 121.33 45 992
SI 21:00:00 TS -14.90 121.08 45 991
SI 23:00:00 TS -15.02 120.89 45 990
SI 1967-01-17 00:00:00 TS -15.12 120.72 45 990
SI 01:00:00 TS -15.22 120.55 990 990 45 989
SI 03:00:00 TS -15.41 120.25 47 989
SI 06:00:00 TS -15.69 119.78 50 988
SI 09:00:00 TS -15.92 119.32 52 986
SI 11:00:00 TS -16.06 118.99 54 985
SI 12:00:00 TS -16.12 118.82 55 985
SI 15:00:00 TS -16.31 118.27 55 984
SI 18:00:00 TS -16.49 117.70 55 983
SI 19:00:00 TS -16.55 117.51 983 983 55 982
SI 21:00:00 TS -16.67 117.14 981 57 981
SI 23:00:00 TS -16.77 116.80 980 59 980
SI 1967-01-18 00:00:00 TS -16.82 116.64 980 60 980
SI 01:00:00 TS -16.84 116.49 980 980 60 979
SI 03:00:00 TS -16.88 116.22 62 979
SI 06:00:00 TS -16.95 115.83 65 979
SI 09:00:00 TS -17.12 115.46 65 978
SI 11:00:00 TS -17.27 115.19 65 978
SI 12:00:00 TS -17.35 115.04 65 978
SI 15:00:00 TS -17.57 114.53 65 977
SI 16:00:00 TS -17.65 114.36 977 977 65 977
SI 18:00:00 TS -17.81 114.01 976 65 977
SI 21:00:00 TS -18.04 113.55 975 67 976
SI 23:00:00 TS -18.22 113.29 975 69 975
SI 1967-01-19 00:00:00 TS -18.31 113.18 975 70 975
SI 01:00:00 TS -18.42 113.08 975 975 70 974
SI 03:00:00 TS -18.67 112.90 974 70 974
SI 06:00:00 TS -19.08 112.74 973 70 973
SI 07:00:00 TS -19.22 112.70 973 973 70 972
SI 09:00:00 TS -19.51 112.67 972 72 972
SI 11:00:00 TS -19.81 112.69 971 74 971
SI 12:00:00 TS -19.97 112.70 971 971 75 971
SI 15:00:00 TS -20.45 112.76 970 75 970
SI 16:00:00 TS -20.61 112.79 970 970 75 969
SI 18:00:00 TS -20.92 112.87 968 75 969
SI 21:00:00 TS -21.35 113.01 967 77 967
SI 23:00:00 TS -21.62 113.12 966 79 965
SI 1967-01-20 00:00:00 TS -21.75 113.17 965 80 965
SI 01:00:00 TS -21.89 113.23 965 965 80 965
SI 03:00:00 TS -22.17 113.34 965 80 965
SI 06:00:00 TS -22.56 113.53 965 80 965
SI 07:00:00 TS -22.68 113.59 965 965 78 965
SI 09:00:00 TS -22.90 113.73 75 967
SI 11:00:00 TS -23.10 113.87 71 968
SI 12:00:00 TS -23.20 113.94 70 969
SI 15:00:00 TS -23.47 114.17 60 971
SI 18:00:00 TS -23.72 114.40 50 973
SI 21:00:00 TS -23.95 114.64 45 975
SI 23:00:00 TS -24.10 114.80 41 977
SI 1967-01-21 00:00:00 TS -24.17 114.87 40 978
SI 01:00:00 TS -24.25 114.94 978 978 39 978
SI 03:00:00 TS -24.42 115.07 37 979
SI 06:00:00 TS -24.67 115.26 35 981
SI 09:00:00 TS -24.92 115.46 35 982
SI 11:00:00 TS -25.08 115.60 35 982
SI 12:00:00 TS -25.16 115.66 35 983
SI 15:00:00 TS -25.40 115.86 35 984
SI 18:00:00 TS -25.64 116.07 35 986
SI 21:00:00 TS -25.91 116.31 35 987
SI 23:00:00 TS -26.10 116.50 35 987
SI 1967-01-22 00:00:00 TS -26.21 116.61 35 988
SI 01:00:00 TS -26.32 116.73 988 988 35 988
SI 03:00:00 TS -26.55 117.01 35 989
SI 06:00:00 TS -26.90 117.48 35 991
SI 08:00:00 TS -27.12 117.82 35 991
SI 09:00:00 TS -27.22 118.00 35 992
SI 11:00:00 TS -27.42 118.38 35 992
SI 12:00:00 TS -27.53 118.53 35 993
SI 15:00:00 TS -27.81 119.08 35 994
SI 18:00:00 TS -28.10 119.65 35 995
SI 21:00:00 TS -28.41 120.28 35 996
SI 23:00:00 TS -28.60 120.73 35 996
SI 1967-01-23 00:00:00 TS -28.75 120.93 35 997
SI 01:00:00 NR -28.80 121.10 997 997

Source Information

Agency Information
USA bsh151967.txt
TOKYO
CMA
HKO
NEWDELHI
REUNION
BOM IDCKMSTM0S.csv:Line=4675:ELSIE
NADI
WELLINGTON
DS824 s_hem.dat:1023:15S
TD9636 cons_worldwide_trop_cyclone_18710101-19891231-006:Line=7613
TD9635
NEUMANN tracks.sh:Storm=185:ELSIE:BSH1567:BM356
MLC

All available IBTrACS Data

SEASON BASIN SUBBASIN ISO_TIME_________ NATURE LAT LON WMO PRES WMO AGENCY DIST2LAND LANDFALL IFLAG USA AGENCY USA ATCF_ID USA LAT USA LON USA SSHS BOM LAT BOM LON BOM PRES BOM PRES_METHOD DS824 LAT DS824 LON DS824 STAGE TD9636 LAT TD9636 LON TD9636 STAGE NEUMANN LAT NEUMANN LON NEUMANN CLASS NEUMANN WIND NEUMANN PRES STORM SPEED STORM DIR
Year degrees north degrees east mb km km degrees north degrees east 1 degrees north degrees east mb degrees north degrees east degrees north degrees east degrees north degrees east kts mb kts degrees
1967 SI WA 1967-01-14 23:00:00 NR -14.00 124.00 145 145 __________O___ -1 -14.00 124.00 7 1 0
1967 SI WA 1967-01-15 00:00:00 TS -14.00 123.98 145 145 O________OP___ jtwc_sh SH151967 -14.00 124.00 -1 -14.00 124.00 TC -13.99 123.96 7 3 287
1967 SI WA 03:00:00 TS -13.95 123.83 170 170 P________PP___ SH151967 -13.94 123.84 -1 -13.94 123.84 TC -13.96 123.83 7 3 287
1967 SI WA 06:00:00 TS -13.91 123.70 179 179 O________OP___ jtwc_sh SH151967 -13.90 123.70 -1 -13.90 123.70 TC -13.94 123.70 7 2 282
1967 SI WA 09:00:00 TS -13.90 123.59 189 189 P________PP___ SH151967 -13.89 123.60 -1 -13.89 123.60 TC -13.91 123.58 7 2 275
1967 SI WA 11:00:00 TS -13.90 123.52 199 199 P________PO___ SH151967 -13.90 123.54 -1 -13.90 123.54 TC -13.90 123.50 7 2 271
1967 SI WA 12:00:00 TS -13.90 123.49 199 199 O________OP___ jtwc_sh SH151967 -13.90 123.50 -1 -13.90 123.50 TC -13.89 123.46 7 3 271
1967 SI WA 15:00:00 TS -13.89 123.35 217 217 P________PP___ SH151967 -13.90 123.35 -1 -13.90 123.35 TC -13.88 123.34 7 3 271
1967 SI WA 18:00:00 TS -13.89 123.21 225 225 O________OP___ jtwc_sh SH151967 -13.90 123.20 -1 -13.90 123.20 TC -13.88 123.22 7 2 271
1967 SI WA 21:00:00 TS -13.89 123.10 233 233 P________PP___ SH151967 -13.89 123.11 -1 -13.89 123.11 TC -13.89 123.09 7 2 269
1967 SI WA 23:00:00 TS -13.90 123.03 242 242 P________PO___ SH151967 -13.89 123.04 -1 -13.89 123.04 TC -13.90 123.00 1 3 238
1967 SI WA 1967-01-16 00:00:00 TS -13.96 122.98 233 232 O________OP_O_ jtwc_sh SH151967 -13.90 123.00 -1 -13.90 123.00 TC -13.91 122.94 1 -14.70 123.00 TC 30 999 6 212
1967 SI WA 01:00:00 TS -14.08 122.92 999 bom 232 232 P_____O__PP_P_ SH151967 -13.91 122.94 -1 -14.70 123.00 999 -13.91 122.94 TC -13.91 122.89 1 -14.76 122.83 TC 30 998 7 226
1967 SI WA 03:00:00 TS -14.20 122.72 240 240 P_____P__PP_P_ SH151967 -13.94 122.81 -1 -14.78 122.66 -13.94 122.81 TC -13.93 122.77 1 -14.86 122.49 TC 32 998 7 241
1967 SI WA 06:00:00 TS -14.35 122.40 241 241 O_____P__OP_O_ jtwc_sh SH151967 -14.00 122.60 -1 -14.91 122.15 -14.00 122.60 TC -13.98 122.58 1 -15.00 122.00 TC 35 997 7 248
1967 SI WA 09:00:00 TS -14.45 122.09 239 239 P_____P__PP_P_ SH151967 -14.04 122.43 -1 -15.04 121.65 -14.04 122.43 TC -14.04 122.40 1 -15.10 121.55 TC 37 996 6 252
1967 SI WA 11:00:00 TS -14.51 121.91 248 248 P_____P__PO_P_ SH151967 -14.08 122.34 -1 -15.12 121.32 -14.08 122.34 TC -14.10 122.30 1 -15.16 121.25 TC 39 995 5 252
1967 SI WA 12:00:00 TS -14.54 121.83 253 243 O_____P__OP_O_ jtwc_sh SH151967 -14.10 122.30 -1 -15.16 121.15 -14.10 122.30 TC -14.12 122.27 1 -15.20 121.10 TC 40 995 5 248
1967 SI WA 15:00:00 TS -14.64 121.58 254 244 P_____P__PP_P_ SH151967 -14.18 122.20 -1 -15.29 120.67 -14.18 122.20 TC -14.20 122.22 1 -15.35 120.60 TC 42 993 5 245
1967 SI WA 18:00:00 TS -14.76 121.33 256 255 O_____P__OP_O_ jtwc_sh SH151967 -14.30 122.10 -1 -15.41 120.20 -14.30 122.10 TC -14.31 122.17 1 -15.50 120.10 TC 45 992 5 241
1967 SI WA 21:00:00 TS -14.90 121.08 263 263 P_____P__PP_P_ SH151967 -14.46 121.99 -1 -15.53 119.76 -14.46 121.99 TC -14.46 122.04 1 -15.59 119.63 TC 45 991 6 239
1967 SI WA 23:00:00 TS -15.02 120.89 270 270 P_____P__PO_P_ SH151967 -14.61 121.88 -1 -15.62 119.47 -14.61 121.88 TC -14.60 121.90 1 -15.66 119.34 TC 45 990 8 238
1967 SI WA 1967-01-17 00:00:00 TS -15.12 120.72 278 270 O_____P__OP_O_ jtwc_sh SH151967 -14.70 121.80 -1 -15.66 119.33 -14.70 121.80 TC -14.69 121.80 1 -15.70 119.20 TC 45 990 12 239
1967 SI WA 01:00:00 TS -15.22 120.55 990 bom 286 278 P_____O__PP_P_ SH151967 -14.80 121.71 -1 -15.70 119.20 990 -14.80 121.71 TC -14.78 121.69 1 -15.76 119.07 TC 45 989 11 237
1967 SI WA 03:00:00 TS -15.41 120.25 294 286 P_____P__PP_P_ SH151967 -15.03 121.47 -1 -15.78 118.94 -15.03 121.47 TC -14.99 121.43 1 -15.90 118.84 TC 47 989 11 238
1967 SI WA 06:00:00 TS -15.69 119.78 309 309 O_____P__OP_O_ jtwc_sh SH151967 -15.40 121.00 -1 -15.91 118.57 -15.40 121.00 TC -15.34 120.96 1 -16.10 118.50 TC 50 988 10 240
1967 SI WA 09:00:00 TS -15.92 119.32 346 346 P_____P__PP_P_ SH151967 -15.71 120.45 -1 -16.04 118.21 -15.71 120.45 TC -15.68 120.41 1 -16.21 118.16 TC 52 986 10 244
1967 SI WA 11:00:00 TS -16.06 118.99 366 366 P_____P__PO_P_ SH151967 -15.91 120.03 -1 -16.13 117.97 -15.91 120.03 TC -15.90 120.00 2 -16.27 117.92 TC 54 985 11 247
1967 SI WA 12:00:00 TS -16.12 118.82 386 386 O_____P__OP_O_ jtwc_sh SH151967 -16.00 119.80 -1 -16.17 117.85 -16.00 119.80 TC -15.99 119.78 2 -16.30 117.80 TC 55 985 11 250
1967 SI WA 15:00:00 TS -16.31 118.27 429 425 P_____P__PP_P_ SH151967 -16.27 119.06 -1 -16.31 117.50 -16.27 119.06 TC -16.25 119.08 2 -16.39 117.41 TC 55 984 11 251
1967 SI WA 18:00:00 TS -16.49 117.70 429 429 O_____P__OP_O_ jtwc_sh SH151967 -16.50 118.30 -1 -16.45 117.13 -16.50 118.30 TC -16.48 118.35 2 -16.50 117.00 TC 55 983 11 252
1967 SI WA 19:00:00 TS -16.55 117.51 983 bom 436 424 P_____O__PP_P_ SH151967 -16.58 118.06 -1 -16.50 117.00 983 -16.58 118.06 TC -16.55 118.10 2 -16.56 116.86 TC 55 982 11 251
1967 SI WA 21:00:00 TS -16.67 117.14 427 422 P_____P__PP_P_ SH151967 -16.72 117.60 -1 -16.60 116.73 981 -16.72 117.60 TC -16.68 117.63 2 -16.69 116.59 TC 57 981 11 252
1967 SI WA 23:00:00 TS -16.77 116.80 425 425 P_____P__PO_P_ SH151967 -16.85 117.19 -1 -16.70 116.46 980 -16.85 117.19 TC -16.80 117.20 2 -16.78 116.33 TC 59 980 10 253
1967 SI WA 1967-01-18 00:00:00 TS -16.82 116.64 425 425 O_____P__OP_O_ jtwc_sh SH151967 -16.90 117.00 -1 -16.75 116.33 980 -16.90 117.00 TC -16.85 117.02 2 -16.80 116.20 TC 60 980 9 257
1967 SI WA 01:00:00 TS -16.84 116.49 980 bom 425 415 P_____O__PP_P_ SH151967 -16.94 116.83 -1 -16.80 116.20 980 -16.94 116.83 TC -16.90 116.86 2 -16.76 116.07 TC 60 979 8 261
1967 SI WA 03:00:00 TS -16.88 116.22 417 417 P_____P__PP_P_ SH151967 -17.00 116.52 -1 -16.89 115.96 -17.00 116.52 TC -16.99 116.55 2 -16.61 115.83 TC 62 979 8 261
1967 SI WA 06:00:00 TS -16.95 115.83 424 408 O_____P__OP_O_ jtwc_sh SH151967 -17.10 116.10 -1 -17.03 115.63 -17.10 116.10 TC -17.12 116.12 2 -16.50 115.50 TC 65 979 8 251
1967 SI WA 09:00:00 TS -17.12 115.46 411 401 P_____P__PP_P_ SH151967 -17.27 115.68 -1 -17.17 115.30 -17.27 115.68 TC -17.27 115.70 2 -16.85 115.21 TC 65 978 8 242
1967 SI WA 11:00:00 TS -17.27 115.19 401 401 P_____P__PO_P_ SH151967 -17.42 115.37 -1 -17.26 115.09 -17.42 115.37 TC -17.40 115.40 2 -17.16 115.01 TC 65 978 9 240
1967 SI WA 12:00:00 TS -17.35 115.04 410 400 O_____P__OP_O_ jtwc_sh SH151967 -17.50 115.20 -1 -17.30 114.98 -17.50 115.20 TC -17.48 115.20 2 -17.30 114.90 TC 65 978 10 244
1967 SI WA 15:00:00 TS -17.57 114.53 407 407 P_____P__PP_P_ SH151967 -17.79 114.54 -1 -17.45 114.63 -17.79 114.54 TC -17.75 114.54 2 -17.54 114.52 TC 65 977 11 245
1967 SI WA 16:00:00 TS -17.65 114.36 977 bom 404 404 P_____O__PP_P_ SH151967 -17.89 114.32 -1 -17.50 114.50 977 -17.89 114.32 TC -17.85 114.32 2 -17.60 114.39 TC 65 977 11 245
1967 SI WA 18:00:00 TS -17.81 114.01 416 413 O_____P__OP_O_ jtwc_sh SH151967 -18.10 113.90 -1 -17.56 114.23 976 -18.10 113.90 TC -18.06 113.90 2 -17.70 114.10 TC 65 977 10 243
1967 SI WA 21:00:00 TS -18.04 113.55 422 416 P_____P__PP_P_ SH151967 -18.40 113.40 -1 -17.67 113.80 975 -18.40 113.40 TC -18.39 113.36 2 -17.80 113.66 TC 67 976 10 239
1967 SI WA 23:00:00 TS -18.22 113.29 420 411 P_____P__PO_P_ SH151967 -18.60 113.17 -1 -17.80 113.50 975 -18.60 113.17 TC -18.60 113.10 1 -17.91 113.35 TC 69 975 9 232
1967 SI WA 1967-01-19 00:00:00 TS -18.31 113.18 411 402 O_____P__OP_O_ jtwc_sh SH151967 -18.70 113.10 -1 -17.89 113.35 975 -18.70 113.10 TC -18.70 113.03 1 -18.00 113.20 TC 70 975 9 224
1967 SI WA 01:00:00 TS -18.42 113.08 975 bom 402 383 P_____O__PP_P_ SH151967 -18.80 113.05 -1 -18.00 113.20 975 -18.80 113.05 TC -18.80 112.98 1 -18.12 113.03 TC 70 974 9 217
1967 SI WA 03:00:00 TS -18.67 112.90 375 341 P_____P__PP_P_ SH151967 -19.00 113.03 -1 -18.28 112.85 974 -19.00 113.03 TC -18.99 112.95 1 -18.44 112.69 TC 70 974 9 206
1967 SI WA 06:00:00 TS -19.08 112.74 341 330 O_____P__OP_O_ jtwc_sh SH151967 -19.30 113.10 -1 -18.81 112.40 973 -19.30 113.10 TC -19.29 113.01 1 -19.00 112.30 TC 70 973 9 199
1967 SI WA 07:00:00 TS -19.22 112.70 973 bom 330 300 P_____O__PP_P_ SH151967 -19.40 113.12 -1 -19.00 112.30 973 -19.40 113.12 TC -19.39 113.05 1 -19.17 112.22 TC 70 972 9 187
1967 SI WA 09:00:00 TS -19.51 112.67 300 270 P_____P__PP_P_ SH151967 -19.60 113.16 -1 -19.37 112.18 972 -19.60 113.16 TC -19.59 113.13 1 -19.53 112.14 TC 72 972 9 182
1967 SI WA 11:00:00 TS -19.81 112.69 270 261 P_____P__PO_P_ SH151967 -19.80 113.19 -1 -19.78 112.17 971 -19.80 113.19 TC -19.80 113.20 2 -19.90 112.16 TC 74 971 9 0
1967 SI WA 12:00:00 TS -19.97 112.70 971 bom 251 208 O_____O__OP_O_ jtwc_sh SH151967 -19.90 113.20 -1 -20.00 112.20 971 -19.90 113.20 TC -19.90 113.19 2 -20.10 112.20 TC 75 971 10 174
1967 SI WA 15:00:00 TS -20.45 112.76 199 191 P_____P__PP_P_ SH151967 -20.19 113.16 -1 -20.76 112.41 970 -20.19 113.16 TC -20.20 113.14 2 -20.76 112.40 TC 75 970 10 172
1967 SI WA 16:00:00 TS -20.61 112.79 970 bom 191 159 P_____O__PP_P_ SH151967 -20.29 113.14 -1 -21.00 112.50 970 -20.29 113.14 TC -20.30 113.12 2 -20.98 112.49 TC 75 969 10 167
1967 SI WA 18:00:00 TS -20.92 112.87 159 123 O_____P__OP_O_ jtwc_sh SH151967 -20.50 113.10 -1 -21.41 112.67 968 -20.50 113.10 TC -20.51 113.09 2 -21.40 112.70 TC 75 969 9 165
1967 SI WA 21:00:00 TS -21.35 113.01 123 98 P_____P__PP_P_ SH151967 -20.82 113.07 -1 -21.90 112.95 967 -20.82 113.07 TC -20.85 113.08 2 -21.95 113.01 TC 77 967 9 162
1967 SI WA 23:00:00 TS -21.62 113.12 98 84 P_____P__PO_P_ SH151967 -21.06 113.08 -1 -22.17 113.13 966 -21.06 113.08 TC -21.10 113.10 2 -22.26 113.21 TC 79 965 9 160
1967 SI WA 1967-01-20 00:00:00 TS -21.75 113.17 79 75 O_____P__OP_O_ jtwc_sh SH151967 -21.20 113.10 -1 -22.29 113.22 965 -21.20 113.10 TC -21.24 113.13 2 -22.40 113.30 TC 80 965 9 159
1967 SI WA 01:00:00 TS -21.89 113.23 965 bom 75 56 P_____O__PP_P_ SH151967 -21.35 113.13 -1 -22.40 113.30 965 4 -21.35 113.13 TC -21.38 113.16 2 -22.53 113.38 TC 80 965 9 160
1967 SI WA 03:00:00 TS -22.17 113.34 52 15 P_____P__PP_P_ SH151967 -21.69 113.21 -1 -22.63 113.44 965 -21.69 113.21 TC -21.69 113.24 2 -22.74 113.52 TC 80 965 9 157
1967 SI WA 06:00:00 TS -22.56 113.53 10 0 O_____P__OP_O_ jtwc_sh SH151967 -22.20 113.40 -1 -22.92 113.64 965 -22.20 113.40 TC -22.16 113.42 2 -23.00 113.70 TC 80 965 8 156
1967 SI WA 07:00:00 TS -22.68 113.59 965 bom 10 10 P_____O__PP_P_ SH151967 -22.35 113.47 -1 -23.00 113.70 965 -22.35 113.47 TC -22.31 113.48 2 -23.08 113.76 TC 78 965 8 151
1967 SI WA 09:00:00 TS -22.90 113.73 10 0 P_____P__PP_P_ SH151967 -22.62 113.63 -1 -23.16 113.83 -22.62 113.63 TC -22.62 113.63 2 -23.21 113.86 TC 75 967 7 149
1967 SI WA 11:00:00 TS -23.10 113.87 0 0 P_____P__PO_P_ SH151967 -22.88 113.81 -1 -23.31 113.94 -22.88 113.81 TC -22.90 113.80 2 -23.34 113.95 TC 71 968 7 146
1967 SI WA 12:00:00 TS -23.20 113.94 0 0 O_____P__OP_O_ jtwc_sh SH151967 -23.00 113.90 -1 -23.37 114.00 -23.00 113.90 TC -23.03 113.88 2 -23.40 114.00 TC 70 969 7 143
1967 SI WA 15:00:00 TS -23.47 114.17 0 0 P_____P__PP_P_ SH151967 -23.36 114.19 -1 -23.55 114.17 -23.36 114.19 TC -23.39 114.17 2 -23.61 114.14 TC 60 971 7 141
1967 SI WA 18:00:00 TS -23.72 114.40 0 0 O_____P__OP_O_ jtwc_sh SH151967 -23.70 114.50 -1 -23.71 114.33 -23.70 114.50 TC -23.72 114.47 2 -23.80 114.30 TC 50 973 6 138
1967 SI WA 21:00:00 TS -23.95 114.64 0 0 P_____P__PP_P_ SH151967 -24.01 114.81 -1 -23.87 114.49 -24.01 114.81 TC -24.01 114.79 2 -23.93 114.49 TC 45 975 6 136
1967 SI WA 23:00:00 TS -24.10 114.80 0 0 P_____P__PO_P_ SH151967 -24.21 115.01 -1 -23.98 114.60 -24.21 115.01 TC -24.20 115.00 1 -24.04 114.63 TC 41 977 6 137
1967 SI WA 1967-01-21 00:00:00 TS -24.17 114.87 0 0 O_____P__OP_O_ jtwc_sh SH151967 -24.30 115.10 -1 -24.04 114.65 -24.30 115.10 TC -24.29 115.10 1 -24.10 114.70 TC 40 978 6 140
1967 SI WA 01:00:00 TS -24.25 114.94 978 bom 0 0 P_____O__PP_P_ SH151967 -24.39 115.19 -1 -24.10 114.70 978 -24.39 115.19 TC -24.39 115.19 1 -24.19 114.77 TC 39 978 6 144
1967 SI WA 03:00:00 TS -24.42 115.07 0 0 P_____P__PP_P_ SH151967 -24.56 115.35 -1 -24.23 114.76 -24.56 115.35 TC -24.56 115.38 1 -24.39 114.91 TC 37 979 6 145
1967 SI WA 06:00:00 TS -24.67 115.26 0 0 O_____P__OP_O_ jtwc_sh SH151967 -24.80 115.60 -1 -24.43 114.84 -24.80 115.60 TC -24.81 115.65 1 -24.70 115.10 TC 35 981 6 145
1967 SI WA 09:00:00 TS -24.92 115.46 0 0 P_____P__PP_P_ SH151967 -25.06 115.90 -1 -24.64 114.91 -25.06 115.90 TC -25.05 115.92 1 -24.96 115.26 TC 35 982 6 144
1967 SI WA 11:00:00 TS -25.08 115.60 0 0 P_____P__PO_P_ SH151967 -25.22 116.10 -1 -24.79 114.97 -25.22 116.10 TC -25.20 116.10 2 -25.12 115.35 TC 35 982 6 144
1967 SI WA 12:00:00 TS -25.16 115.66 0 0 O_____P__OP_O_ jtwc_sh SH151967 -25.30 116.20 -1 -24.87 115.00 -25.30 116.20 TC -25.28 116.19 2 -25.20 115.40 TC 35 983 6 143
1967 SI WA 15:00:00 TS -25.40 115.86 0 0 P_____P__PP_P_ SH151967 -25.50 116.45 -1 -25.14 115.12 -25.50 116.45 TC -25.50 116.44 2 -25.44 115.55 TC 35 984 6 143
1967 SI WA 18:00:00 TS -25.64 116.07 0 0 O_____P__OP_O_ jtwc_sh SH151967 -25.70 116.70 -1 -25.44 115.29 -25.70 116.70 TC -25.72 116.70 2 -25.70 115.70 TC 35 986 7 142
1967 SI WA 21:00:00 TS -25.91 116.31 0 0 P_____P__PP_P_ SH151967 -25.94 116.99 -1 -25.77 115.53 -25.94 116.99 TC -25.95 116.99 2 -25.95 115.78 TC 35 987 7 140
1967 SI WA 23:00:00 TS -26.10 116.50 0 0 P_____P__PO_P_ SH151967 -26.11 117.19 -1 -26.03 115.74 -26.11 117.19 TC -26.10 117.20 2 -26.17 115.90 TC 35 987 8 137
1967 SI WA 1967-01-22 00:00:00 TS -26.21 116.61 0 0 O_____P__OP_O_ jtwc_sh SH151967 -26.20 117.30 -1 -26.16 115.87 -26.20 117.30 TC -26.18 117.31 2 -26.30 116.00 TC 35 988 9 135
1967 SI WA 01:00:00 TS -26.32 116.73 988 bom 0 0 P_____O__PP_P_ SH151967 -26.28 117.40 -1 -26.30 116.00 988 -26.28 117.40 TC -26.26 117.42 2 -26.47 116.15 TC 35 988 10 134
1967 SI WA 03:00:00 TS -26.55 117.01 0 0 P_____P__PP_P_ SH151967 -26.45 117.62 -1 -26.62 116.30 -26.45 117.62 TC -26.42 117.66 2 -26.84 116.53 TC 35 989 11 131
1967 SI WA 06:00:00 TS -26.90 117.48 0 0 O_____P__OP_O_ jtwc_sh SH151967 -26.70 118.00 -1 -27.10 116.82 -26.70 118.00 TC -26.68 118.05 2 -27.40 117.20 TC 35 991 11 128
1967 SI WA 08:00:00 TS -27.12 117.82 bom 0 0 P_____O__PP_P_ SH151967 -26.87 118.31 -1 -27.40 117.20 -26.87 118.31 TC -26.85 118.34 2 -27.69 117.59 TC 35 991 11 125
1967 SI WA 09:00:00 TS -27.22 118.00 0 0 P_____P__PP_P_ SH151967 -26.95 118.48 -1 -27.54 117.40 -26.95 118.48 TC -26.93 118.49 2 -27.82 117.79 TC 35 992 12 121
1967 SI WA 11:00:00 TS -27.42 118.38 0 0 P_____P__PO_P_ SH151967 -27.12 118.83 -1 -27.78 117.82 -27.12 118.83 TC -27.10 118.80 2 -28.02 118.19 TC 35 992 11 124
1967 SI WA 12:00:00 TS -27.53 118.53 0 0 O_____P__OP_O_ jtwc_sh SH151967 -27.20 119.00 -1 -27.89 118.03 -27.20 119.00 TC -27.18 118.96 2 -28.10 118.40 TC 35 993 11 122
1967 SI WA 15:00:00 TS -27.81 119.08 0 0 P_____P__PP_P_ SH151967 -27.45 119.51 -1 -28.17 118.70 -27.45 119.51 TC -27.44 119.48 2 -28.21 119.04 TC 35 994 11 119
1967 SI WA 18:00:00 TS -28.10 119.65 0 0 O_____P__OP_O_ jtwc_sh SH151967 -27.70 120.00 -1 -28.40 119.40 -27.70 120.00 TC -27.69 120.04 2 -28.30 119.70 TC 35 995 12 120
1967 SI WA 21:00:00 TS -28.41 120.28 0 0 ______P___P_P_ SH151967 -1 -28.59 120.12 TC -27.94 120.61 2 -28.51 120.39 TC 35 996 13 118
1967 SI WA 23:00:00 TS -28.60 120.73 0 0 ______P___O_P_ SH151967 -1 -28.70 120.61 TC -28.10 121.00 1 -28.70 120.86 TC 35 996 13 121
1967 SI WA 1967-01-23 00:00:00 TS -28.75 120.93 0 0 ______P_____O_ -1 -28.75 120.85 1 -28.80 121.10 TC 35 997 11 122
1967 SI WA 01:00:00 NR -28.80 121.10 997 bom 0 ______O_______ -1 -28.80 121.10 997 1 TC 10 108